Terminal Aerodrome Forecast
Issued by NWS

Home | Current Version | Previous Version | Text Only | Print | Product List | Glossary On
Versions: 1 2 3 4 5 6 7 8 9 10 11 12 13 14 15 16 17 18 19 20 21
000
FTUS42 KFFC 182100 AAB
TAFFTY
TAF AMD
KFTY 182140Z 1822/1918 05007KT 5SM SHRA BKN020 OVC060
     FM190000 04009G17KT 4SM SHRA BR OVC009
     FM190800 04012G22KT 6SM -SHRA BR OVC012
     FM191200 03014G24KT 6SM -RA BKN022=

USA.gov is the U.S. government's official web portal to all federal, state and local government web resources and services.